createdAt,value
2022-11-23T00:01:51.694Z,11.40
2022-11-23T00:04:20.381Z,11.40
2022-11-23T00:06:49.162Z,11.40
2022-11-23T00:09:17.790Z,11.40
2022-11-23T00:11:46.327Z,11.40
2022-11-23T00:14:14.918Z,11.50
2022-11-23T00:16:50.966Z,11.40
2022-11-23T00:19:19.568Z,11.30
2022-11-23T00:21:48.062Z,11.30
2022-11-23T00:24:16.520Z,11.40
2022-11-23T00:26:45.188Z,11.50
2022-11-23T00:29:13.804Z,11.40
2022-11-23T00:31:42.391Z,11.40
2022-11-23T00:34:12.573Z,11.30
2022-11-23T00:36:41.385Z,11.20
2022-11-23T00:39:09.892Z,11.30
2022-11-23T00:41:38.595Z,11.20
2022-11-23T00:44:08.009Z,11.20
2022-11-23T00:46:36.707Z,11.20
2022-11-23T00:49:06.979Z,11.20
2022-11-23T00:51:38.272Z,11.30
2022-11-23T00:54:07.407Z,11.40
2022-11-23T00:56:36.522Z,11.40
2022-11-23T00:59:05.288Z,11.60
2022-11-23T01:01:37.321Z,11.70
2022-11-23T01:04:24.579Z,11.80
2022-11-23T01:06:56.936Z,12.00
2022-11-23T01:09:27.042Z,12.00
2022-11-23T01:11:55.656Z,12.10
2022-11-23T01:14:26.027Z,12.10
2022-11-23T01:16:54.696Z,12.20
2022-11-23T01:19:23.288Z,12.20
2022-11-23T01:21:51.974Z,12.20
2022-11-23T01:24:23.582Z,12.20
2022-11-23T01:26:52.809Z,12.20
2022-11-23T01:29:21.944Z,12.20
2022-11-23T01:31:50.434Z,12.20
2022-11-23T01:34:19.111Z,12.10
2022-11-23T01:36:47.927Z,12.10
2022-11-23T01:39:16.455Z,12.10
2022-11-23T01:41:47.109Z,12.20
2022-11-23T01:44:26.436Z,12.20
2022-11-23T01:46:56.016Z,12.30
2022-11-23T01:49:25.286Z,12.30
2022-11-23T01:51:56.484Z,12.30
2022-11-23T01:54:26.906Z,12.30
2022-11-23T01:56:58.960Z,12.30
2022-11-23T01:59:28.378Z,12.30
2022-11-23T02:01:56.971Z,12.40
2022-11-23T02:04:29.640Z,12.50
2022-11-23T02:06:58.835Z,12.50
2022-11-23T02:09:30.783Z,12.50
2022-11-23T02:12:01.485Z,12.60
2022-11-23T02:14:30.543Z,12.60
2022-11-23T02:16:59.961Z,12.70
2022-11-23T02:19:33.909Z,12.70
2022-11-23T02:22:02.674Z,12.70
2022-11-23T02:24:51.077Z,12.70
2022-11-23T02:27:21.177Z,12.70
2022-11-23T02:29:52.549Z,12.70
2022-11-23T02:32:23.523Z,12.70
2022-11-23T02:35:11.812Z,12.70
2022-11-23T02:37:41.362Z,12.70
2022-11-23T02:40:16.214Z,12.70
2022-11-23T02:42:46.891Z,12.70
2022-11-23T02:45:19.940Z,12.70
2022-11-23T02:47:49.427Z,12.70
2022-11-23T02:50:17.838Z,12.70
2022-11-23T02:52:46.403Z,12.70
2022-11-23T02:55:17.642Z,12.70
2022-11-23T02:58:06.891Z,12.80
2022-11-23T03:00:35.557Z,12.80
2022-11-23T03:03:04.834Z,12.90
2022-11-23T03:05:34.778Z,13.00
2022-11-23T03:08:07.014Z,13.10
2022-11-23T03:10:35.784Z,13.10
2022-11-23T03:13:05.737Z,13.10
2022-11-23T03:15:37.433Z,13.10
2022-11-23T03:18:07.191Z,13.20
2022-11-23T03:20:36.563Z,13.20
2022-11-23T03:23:06.335Z,13.20
2022-11-23T03:25:34.869Z,13.20
2022-11-23T03:28:07.121Z,13.20
2022-11-23T03:30:35.788Z,13.20
2022-11-23T03:33:06.719Z,13.20
2022-11-23T03:35:36.634Z,13.20
2022-11-23T03:38:22.004Z,13.20
2022-11-23T03:40:50.623Z,13.20
2022-11-23T03:43:38.425Z,13.30
2022-11-23T03:46:06.976Z,13.40
2022-11-23T03:48:35.627Z,13.40
2022-11-23T03:51:04.462Z,13.40
2022-11-23T03:53:33.010Z,13.40
2022-11-23T03:56:01.614Z,13.50
2022-11-23T03:58:33.977Z,13.60
2022-11-23T04:01:07.952Z,13.60
2022-11-23T04:03:36.835Z,13.70
2022-11-23T04:06:12.863Z,13.80
2022-11-23T04:09:02.990Z,13.80
2022-11-23T04:11:42.065Z,13.90
2022-11-23T04:14:10.687Z,13.90
2022-11-23T04:16:40.602Z,13.90
2022-11-23T04:19:09.314Z,14.00
2022-11-23T04:21:39.028Z,14.00
2022-11-23T04:24:08.475Z,14.10
2022-11-23T04:26:38.325Z,14.20
2022-11-23T04:29:06.850Z,14.30
2022-11-23T04:31:37.718Z,14.40
2022-11-23T04:34:14.936Z,14.50
2022-11-23T04:36:43.935Z,14.60
2022-11-23T04:39:13.990Z,14.70
2022-11-23T04:41:59.031Z,14.80
2022-11-23T04:44:27.762Z,14.90
2022-11-23T04:47:02.777Z,14.90
2022-11-23T04:49:33.522Z,15.00
2022-11-23T04:52:02.229Z,15.00
2022-11-23T04:54:36.657Z,15.10
2022-11-23T04:57:09.273Z,15.10
2022-11-23T04:59:39.550Z,15.00
2022-11-23T05:02:08.215Z,14.90
2022-11-23T05:04:59.910Z,14.90
2022-11-23T05:07:32.499Z,14.80
2022-11-23T05:10:08.086Z,14.70
2022-11-23T05:12:38.097Z,14.60
2022-11-23T05:15:07.151Z,14.60
2022-11-23T05:17:38.614Z,14.50
2022-11-23T05:20:13.886Z,14.50
2022-11-23T05:22:48.157Z,14.50
2022-11-23T05:25:20.896Z,14.40
2022-11-23T05:27:56.558Z,14.40
2022-11-23T05:30:25.280Z,14.40
2022-11-23T05:32:53.900Z,14.50
2022-11-23T05:35:25.193Z,14.60
2022-11-23T05:37:53.994Z,14.70
2022-11-23T05:40:22.673Z,14.80
2022-11-23T05:42:56.258Z,14.80
2022-11-23T05:45:25.436Z,14.90
2022-11-23T05:47:57.075Z,14.90
2022-11-23T05:50:51.368Z,14.90
2022-11-23T05:53:29.198Z,14.90
2022-11-23T05:56:05.938Z,15.00
2022-11-23T05:58:40.239Z,15.00
2022-11-23T06:01:10.488Z,15.00
2022-11-23T06:03:40.672Z,15.00
2022-11-23T06:06:11.370Z,15.00
2022-11-23T06:08:58.451Z,15.10
2022-11-23T06:11:27.305Z,15.20
2022-11-23T06:13:59.955Z,15.20
2022-11-23T06:16:28.846Z,15.30
2022-11-23T06:19:10.797Z,15.30
2022-11-23T06:21:47.455Z,15.30
2022-11-23T06:24:19.965Z,15.30
2022-11-23T06:26:55.805Z,15.40
2022-11-23T06:29:42.867Z,15.50
2022-11-23T06:32:11.616Z,15.60
2022-11-23T06:34:40.170Z,15.70
2022-11-23T06:37:10.320Z,15.80
2022-11-23T06:39:40.333Z,15.90
2022-11-23T06:44:59.593Z,16.10
2022-11-23T06:47:29.390Z,16.30
2022-11-23T06:49:59.350Z,16.50
2022-11-23T06:52:31.672Z,16.70
2022-11-23T06:55:00.196Z,16.90
2022-11-23T06:57:28.814Z,17.00
2022-11-23T06:59:57.904Z,17.10
2022-11-23T07:02:33.568Z,17.30
2022-11-23T07:05:02.657Z,17.40
2022-11-23T07:07:34.744Z,17.40
2022-11-23T07:10:10.472Z,17.50
2022-11-23T07:12:46.447Z,17.60
2022-11-23T07:15:17.536Z,17.70
2022-11-23T07:17:47.196Z,17.80
2022-11-23T07:20:16.022Z,17.80
2022-11-23T07:22:47.491Z,17.80
2022-11-23T07:25:19.249Z,17.90
2022-11-23T07:27:47.850Z,17.90
2022-11-23T07:30:17.102Z,17.90
2022-11-23T07:32:47.067Z,17.80
2022-11-23T07:35:15.661Z,17.90
2022-11-23T07:37:48.040Z,18.00
2022-11-23T07:40:16.755Z,18.10
2022-11-23T07:42:45.639Z,18.30
2022-11-23T07:45:15.926Z,18.40
2022-11-23T07:47:59.336Z,18.60
2022-11-23T07:50:28.164Z,18.80
2022-11-23T07:52:58.618Z,18.90
2022-11-23T07:55:27.624Z,19.00
2022-11-23T07:57:56.524Z,19.00
2022-11-23T08:00:25.360Z,19.00
2022-11-23T08:03:25.523Z,19.00
2022-11-23T08:05:42.658Z,19.00
2022-11-23T08:08:12.686Z,19.10
2022-11-23T08:10:46.074Z,19.30
2022-11-23T08:13:17.135Z,19.30
2022-11-23T08:15:50.175Z,19.40
2022-11-23T08:18:22.190Z,19.50
2022-11-23T08:20:50.760Z,19.70
2022-11-23T08:23:20.657Z,19.90
2022-11-23T08:25:49.350Z,20.00
2022-11-23T08:28:18.123Z,20.10
2022-11-23T08:30:46.728Z,20.20
2022-11-23T08:33:15.659Z,20.40
2022-11-23T08:35:44.267Z,20.50
2022-11-23T08:38:12.772Z,20.60
2022-11-23T08:40:42.756Z,20.90
2022-11-23T08:43:11.381Z,20.90
2022-11-23T08:45:39.943Z,21.10
2022-11-23T08:48:09.046Z,21.10
2022-11-23T08:50:37.613Z,21.20
2022-11-23T08:53:06.126Z,21.30
2022-11-23T08:55:34.717Z,21.40
2022-11-23T08:58:07.871Z,21.50
2022-11-23T09:00:40.634Z,21.60
2022-11-23T09:03:09.042Z,21.80
2022-11-23T09:05:39.305Z,22.10
2022-11-23T09:08:09.187Z,22.30
2022-11-23T09:10:38.123Z,22.40
2022-11-23T09:13:08.097Z,22.60
2022-11-23T09:15:37.117Z,22.70
2022-11-23T09:18:05.940Z,22.80
2022-11-23T09:20:34.422Z,22.80
2022-11-23T09:23:03.303Z,22.70
2022-11-23T09:25:32.035Z,22.70
2022-11-23T09:28:00.837Z,22.50
2022-11-23T09:30:30.842Z,22.50
2022-11-23T09:32:59.393Z,22.50
2022-11-23T09:35:27.903Z,22.50
2022-11-23T09:37:57.274Z,22.60
2022-11-23T09:40:26.913Z,22.70
2022-11-23T09:43:01.871Z,22.80
2022-11-23T09:45:36.339Z,22.90
2022-11-23T09:48:19.833Z,23.10
2022-11-23T09:50:53.146Z,23.40
2022-11-23T09:53:23.490Z,23.50
2022-11-23T09:55:54.386Z,23.60
2022-11-23T09:58:23.984Z,23.60
2022-11-23T10:00:55.386Z,23.80
2022-11-23T10:03:23.946Z,23.80
2022-11-23T10:05:59.252Z,23.80
2022-11-23T10:08:32.678Z,24.00
2022-11-23T10:11:07.567Z,24.20
2022-11-23T10:13:38.188Z,24.30
2022-11-23T10:16:26.242Z,24.50
2022-11-23T10:18:59.721Z,24.60
2022-11-23T10:21:31.042Z,24.70
2022-11-23T10:24:06.505Z,24.60
2022-11-23T10:26:37.797Z,24.30
2022-11-23T10:29:28.776Z,24.40
2022-11-23T10:31:59.005Z,24.20
2022-11-23T10:34:35.287Z,24.10
2022-11-23T10:37:03.878Z,24.00
2022-11-23T10:39:32.925Z,24.00
2022-11-23T10:42:03.513Z,24.00
2022-11-23T10:44:33.102Z,24.00
2022-11-23T10:47:03.316Z,23.90
2022-11-23T10:49:33.319Z,23.80
2022-11-23T10:52:03.837Z,23.80
2022-11-23T10:54:33.709Z,23.80
2022-11-23T10:57:03.531Z,23.60
2022-11-23T10:59:36.381Z,23.60
2022-11-23T11:02:15.932Z,23.60
2022-11-23T11:04:44.769Z,23.60
2022-11-23T11:07:22.559Z,23.60
2022-11-23T11:09:52.308Z,23.50
2022-11-23T11:12:20.991Z,23.40
2022-11-23T11:15:11.347Z,23.30
2022-11-23T11:17:42.385Z,23.20
2022-11-23T11:20:33.304Z,23.00
2022-11-23T11:23:05.215Z,22.90
2022-11-23T11:25:37.540Z,22.90
2022-11-23T11:28:20.004Z,22.80
2022-11-23T11:30:54.931Z,22.80
2022-11-23T11:33:36.173Z,22.80
2022-11-23T11:36:07.485Z,22.70
2022-11-23T11:38:38.896Z,22.70
2022-11-23T11:41:10.259Z,22.70
2022-11-23T11:43:44.094Z,22.60
2022-11-23T11:46:31.402Z,22.60
2022-11-23T11:49:07.473Z,22.60
2022-11-23T11:51:39.607Z,22.60
2022-11-23T11:54:17.804Z,22.60
2022-11-23T11:56:51.312Z,22.50
2022-11-23T11:59:28.311Z,22.50
2022-11-23T12:02:10.979Z,22.50
2022-11-23T12:04:45.023Z,22.40
2022-11-23T12:07:19.700Z,22.40
2022-11-23T12:09:53.001Z,22.40
2022-11-23T12:12:29.496Z,22.40
2022-11-23T12:14:59.464Z,22.40
2022-11-23T12:18:11.479Z,22.40
2022-11-23T12:20:52.623Z,22.50
2022-11-23T12:23:33.549Z,22.40
2022-11-23T12:26:18.904Z,22.40
2022-11-23T12:29:00.596Z,22.50
2022-11-23T12:31:42.646Z,22.40
2022-11-23T12:34:27.046Z,22.40
2022-11-23T12:37:17.886Z,22.50
2022-11-23T12:40:12.335Z,22.50
2022-11-23T12:42:44.411Z,22.50
2022-11-23T12:45:30.950Z,22.50
2022-11-23T12:48:15.813Z,22.40
2022-11-23T12:50:53.499Z,22.40
2022-11-23T12:53:38.395Z,22.30
2022-11-23T12:56:20.592Z,22.30
2022-11-23T12:58:50.643Z,22.20
2022-11-23T13:01:29.281Z,22.00
2022-11-23T13:04:36.605Z,21.70
2022-11-23T13:07:48.920Z,21.20
2022-11-23T13:10:31.610Z,20.80
2022-11-23T13:13:16.440Z,20.20
2022-11-23T13:16:16.194Z,19.90
2022-11-23T13:19:14.977Z,19.50
2022-11-23T13:21:46.298Z,19.10
2022-11-23T13:24:36.827Z,18.80
2022-11-23T13:27:43.268Z,18.60
2022-11-23T13:30:26.094Z,18.40
2022-11-23T13:33:34.477Z,18.20
2022-11-23T13:36:11.430Z,18.00
2022-11-23T13:38:46.258Z,17.90
2022-11-23T13:41:57.669Z,17.70
2022-11-23T13:44:31.137Z,17.60
2022-11-23T13:47:19.466Z,17.50
2022-11-23T13:49:50.626Z,17.40
2022-11-23T13:52:34.898Z,17.40
2022-11-23T13:55:21.001Z,17.30
2022-11-23T13:58:23.195Z,17.20
2022-11-23T14:00:55.014Z,17.10
2022-11-23T14:03:50.229Z,17.10
2022-11-23T14:06:32.757Z,17.10
2022-11-23T14:09:05.889Z,17.00
2022-11-23T14:11:43.708Z,17.00
2022-11-23T14:14:21.675Z,17.00
2022-11-23T14:17:09.597Z,17.00
2022-11-23T14:19:50.613Z,17.00
2022-11-23T14:22:30.498Z,17.00
2022-11-23T14:25:14.719Z,17.00
2022-11-23T14:27:54.833Z,17.00
2022-11-23T14:30:34.102Z,17.00
2022-11-23T14:33:23.657Z,17.00
2022-11-23T14:36:02.846Z,17.00
2022-11-23T14:38:51.931Z,17.00
2022-11-23T14:41:23.639Z,17.00
2022-11-23T14:43:53.734Z,17.00
2022-11-23T14:46:25.803Z,17.00
2022-11-23T14:49:16.943Z,17.00
2022-11-23T14:51:46.102Z,17.00
2022-11-23T14:54:17.889Z,17.00
2022-11-23T14:56:49.018Z,17.00
2022-11-23T14:59:24.691Z,17.00
2022-11-23T15:01:57.684Z,17.00
2022-11-23T15:04:34.728Z,16.90
2022-11-23T15:07:26.540Z,16.90
2022-11-23T15:10:05.154Z,16.80
2022-11-23T15:12:45.045Z,16.70
2022-11-23T15:15:25.165Z,16.60
2022-11-23T15:17:58.070Z,16.50
2022-11-23T15:20:54.595Z,16.50
2022-11-23T15:23:38.885Z,16.30
2022-11-23T15:26:42.063Z,16.30
2022-11-23T15:29:33.939Z,16.20
2022-11-23T15:32:29.314Z,16.20
2022-11-23T15:35:16.165Z,16.10
2022-11-23T15:37:49.298Z,16.10
2022-11-23T15:40:20.605Z,16.00
2022-11-23T15:42:52.143Z,16.00
2022-11-23T15:45:38.687Z,16.00
2022-11-23T15:48:13.543Z,16.00
2022-11-23T15:50:55.090Z,15.90
2022-11-23T15:53:29.316Z,15.90
2022-11-23T15:56:02.840Z,15.90
2022-11-23T15:58:32.692Z,15.90
2022-11-23T16:01:08.757Z,15.90
2022-11-23T16:03:42.866Z,15.90
2022-11-23T16:06:26.566Z,15.90
2022-11-23T16:08:57.274Z,16.00
2022-11-23T16:11:32.529Z,16.00
2022-11-23T16:14:15.819Z,16.10
2022-11-23T16:16:46.424Z,16.10
2022-11-23T16:19:28.436Z,16.20
2022-11-23T16:22:02.849Z,16.30
2022-11-23T16:24:37.137Z,16.30
2022-11-23T16:27:14.748Z,16.40
2022-11-23T16:29:44.017Z,16.40
2022-11-23T16:32:25.564Z,16.50
2022-11-23T16:34:55.760Z,16.50
2022-11-23T16:37:26.939Z,16.50
2022-11-23T16:39:57.484Z,16.50
2022-11-23T16:42:27.370Z,16.60
2022-11-23T16:44:56.382Z,16.60
2022-11-23T16:47:27.288Z,16.60
2022-11-23T16:50:14.964Z,16.60
2022-11-23T16:52:44.496Z,16.60
2022-11-23T16:55:15.225Z,16.50
2022-11-23T16:57:45.311Z,16.50
2022-11-23T17:00:18.079Z,16.50
2022-11-23T17:02:47.102Z,16.40
2022-11-23T17:05:17.780Z,16.40
2022-11-23T17:07:46.780Z,16.40
2022-11-23T17:10:18.105Z,16.30
2022-11-23T17:12:52.116Z,16.30
2022-11-23T17:15:22.953Z,16.20
2022-11-23T17:17:52.185Z,16.10
2022-11-23T17:20:21.488Z,16.10
2022-11-23T17:22:52.218Z,16.00
2022-11-23T17:25:22.775Z,16.00
2022-11-23T17:27:52.070Z,15.90
2022-11-23T17:30:22.986Z,15.80
2022-11-23T17:32:52.156Z,15.70
2022-11-23T17:35:21.796Z,15.60
2022-11-23T17:37:50.716Z,15.60
2022-11-23T17:40:22.719Z,15.60
2022-11-23T17:42:51.505Z,15.50
2022-11-23T17:45:20.755Z,15.50
2022-11-23T17:47:50.513Z,15.40
2022-11-23T17:50:20.567Z,15.30
2022-11-23T17:52:50.856Z,15.30
2022-11-23T17:55:19.959Z,15.20
2022-11-23T17:57:50.201Z,15.10
2022-11-23T18:00:21.806Z,15.10
2022-11-23T18:02:52.243Z,15.00
2022-11-23T18:05:22.151Z,15.00
2022-11-23T18:07:51.616Z,15.00
2022-11-23T18:10:20.768Z,15.00
2022-11-23T18:12:51.375Z,15.00
2022-11-23T18:15:20.468Z,14.90
2022-11-23T18:17:49.606Z,14.90
2022-11-23T18:20:18.541Z,14.90
2022-11-23T18:22:47.751Z,14.80
2022-11-23T18:25:17.500Z,14.80
2022-11-23T18:27:46.616Z,14.80
2022-11-23T18:30:18.032Z,14.80
2022-11-23T18:32:47.168Z,14.70
2022-11-23T18:35:15.941Z,14.70
2022-11-23T18:37:45.378Z,14.80
2022-11-23T18:40:15.559Z,14.80
2022-11-23T18:42:44.971Z,14.80
2022-11-23T18:45:14.006Z,14.80
2022-11-23T18:47:44.315Z,14.80
2022-11-23T18:50:13.473Z,14.70
2022-11-23T18:52:42.247Z,14.70
2022-11-23T18:55:11.413Z,14.70
2022-11-23T18:57:40.327Z,14.70
2022-11-23T19:00:12.871Z,14.80
2022-11-23T19:02:41.703Z,14.80
2022-11-23T19:05:12.120Z,14.80
2022-11-23T19:07:41.084Z,14.80
2022-11-23T19:10:10.863Z,14.70
2022-11-23T19:12:39.867Z,14.70
2022-11-23T19:15:10.001Z,14.80
2022-11-23T19:17:39.565Z,14.80
2022-11-23T19:20:10.159Z,14.80
2022-11-23T19:22:40.639Z,14.80
2022-11-23T19:25:10.881Z,14.90
2022-11-23T19:27:40.806Z,14.90
2022-11-23T19:30:11.146Z,14.90
2022-11-23T19:33:00.175Z,14.90
2022-11-23T19:35:29.904Z,14.90
2022-11-23T19:38:00.349Z,14.80
2022-11-23T19:40:30.013Z,14.80
2022-11-23T19:42:59.001Z,14.80
2022-11-23T19:45:27.595Z,14.80
2022-11-23T19:47:56.291Z,14.80
2022-11-23T19:50:25.105Z,14.70
2022-11-23T19:53:11.776Z,14.70
2022-11-23T19:55:42.730Z,14.70
2022-11-23T19:58:11.569Z,14.70
2022-11-23T20:00:40.146Z,14.70
2022-11-23T20:03:08.689Z,14.70
2022-11-23T20:05:37.367Z,14.70
2022-11-23T20:08:05.993Z,14.70
2022-11-23T20:10:34.680Z,14.80
2022-11-23T20:13:23.524Z,14.70
2022-11-23T20:15:52.057Z,14.70
2022-11-23T20:18:24.387Z,14.80
2022-11-23T20:20:56.006Z,14.80
2022-11-23T20:23:24.642Z,14.80
2022-11-23T20:25:56.835Z,14.80
2022-11-23T20:28:27.286Z,14.80
2022-11-23T20:30:55.951Z,14.80
2022-11-23T20:33:24.438Z,14.70
2022-11-23T20:35:52.974Z,14.80
2022-11-23T20:38:21.648Z,14.80
2022-11-23T20:40:50.771Z,14.80
2022-11-23T20:43:19.289Z,14.90
2022-11-23T20:45:49.260Z,14.80
2022-11-23T20:48:17.804Z,14.80
2022-11-23T20:50:46.414Z,14.80
2022-11-23T20:53:15.075Z,14.80
2022-11-23T20:55:44.256Z,14.80
2022-11-23T20:58:13.060Z,14.80
2022-11-23T21:00:41.609Z,14.80
2022-11-23T21:03:11.689Z,14.70
2022-11-23T21:05:40.404Z,14.70
2022-11-23T21:08:11.603Z,14.70
2022-11-23T21:10:58.401Z,14.70
2022-11-23T21:13:49.863Z,14.60
2022-11-23T21:16:18.868Z,14.60
2022-11-23T21:18:48.899Z,14.60
2022-11-23T21:21:17.623Z,14.50
2022-11-23T21:23:50.978Z,14.50
2022-11-23T21:26:21.081Z,14.50
2022-11-23T21:28:49.731Z,14.50
2022-11-23T21:31:18.263Z,14.50
2022-11-23T21:33:49.504Z,14.50
2022-11-23T21:36:23.881Z,14.50
2022-11-23T21:38:52.887Z,14.50
2022-11-23T21:41:21.524Z,14.60
2022-11-23T21:43:52.793Z,14.60
2022-11-23T21:46:21.765Z,14.70
2022-11-23T21:48:53.028Z,14.70
2022-11-23T21:51:21.770Z,14.70
2022-11-23T21:53:51.743Z,14.70
2022-11-23T21:56:20.396Z,14.70
2022-11-23T21:58:49.057Z,14.70
2022-11-23T22:01:18.808Z,14.70
2022-11-23T22:03:47.834Z,14.70
2022-11-23T22:06:20.411Z,14.80
2022-11-23T22:08:50.122Z,14.70
2022-11-23T22:11:21.201Z,14.80
2022-11-23T22:13:50.210Z,14.70
2022-11-23T22:16:19.920Z,14.80
2022-11-23T22:18:54.001Z,14.70
2022-11-23T22:21:24.905Z,14.60
2022-11-23T22:23:53.794Z,14.70
2022-11-23T22:26:23.851Z,14.70
2022-11-23T22:28:52.942Z,14.70
2022-11-23T22:31:21.961Z,14.70
2022-11-23T22:33:50.905Z,14.60
2022-11-23T22:36:20.820Z,14.60
2022-11-23T22:38:49.592Z,14.70
2022-11-23T22:41:18.785Z,14.70
2022-11-23T22:43:48.875Z,14.70
2022-11-23T22:46:18.435Z,14.70
2022-11-23T22:48:47.833Z,14.70
2022-11-23T22:51:17.274Z,14.70
2022-11-23T22:53:46.020Z,14.70
2022-11-23T22:56:15.221Z,14.70
2022-11-23T22:58:43.973Z,14.70
2022-11-23T23:01:14.970Z,14.80
2022-11-23T23:03:43.898Z,14.70
2022-11-23T23:06:16.012Z,14.70
2022-11-23T23:08:44.541Z,14.70
2022-11-23T23:11:13.754Z,14.80
2022-11-23T23:13:42.352Z,14.70
2022-11-23T23:16:12.649Z,14.80
2022-11-23T23:18:43.456Z,14.80
2022-11-23T23:21:12.875Z,14.80
2022-11-23T23:23:42.389Z,14.80
2022-11-23T23:26:11.339Z,14.80
2022-11-23T23:28:40.298Z,14.80
2022-11-23T23:31:09.652Z,14.80
2022-11-23T23:33:38.590Z,14.80
2022-11-23T23:36:09.567Z,14.80
2022-11-23T23:38:38.196Z,14.70
2022-11-23T23:41:07.471Z,14.70
2022-11-23T23:43:36.203Z,14.70
2022-11-23T23:46:06.061Z,14.70
2022-11-23T23:48:35.449Z,14.70
2022-11-23T23:51:06.343Z,14.70
2022-11-23T23:53:36.832Z,14.70
2022-11-23T23:56:07.792Z,14.70
2022-11-23T23:58:36.702Z,14.60
